sensor_id;sensor_type;location;lat;lon;timestamp;P1;durP1;ratioP1;P2;durP2;ratioP2
12840;SDS011;6487;48.626;12.486;2022-08-19T00:01:54;11.63;;;10.63;;
12840;SDS011;6487;48.626;12.486;2022-08-19T00:04:28;12.57;;;11.57;;
12840;SDS011;6487;48.626;12.486;2022-08-19T00:06:59;12.63;;;11.43;;
12840;SDS011;6487;48.626;12.486;2022-08-19T00:09:28;11.57;;;10.57;;
12840;SDS011;6487;48.626;12.486;2022-08-19T00:11:57;11.93;;;11.03;;
12840;SDS011;6487;48.626;12.486;2022-08-19T00:14:26;12.23;;;11.20;;
12840;SDS011;6487;48.626;12.486;2022-08-19T00:16:58;11.90;;;11.00;;
12840;SDS011;6487;48.626;12.486;2022-08-19T00:19:30;12.60;;;11.50;;
12840;SDS011;6487;48.626;12.486;2022-08-19T00:21:59;12.77;;;11.77;;
12840;SDS011;6487;48.626;12.486;2022-08-19T00:24:28;11.33;;;10.53;;
12840;SDS011;6487;48.626;12.486;2022-08-19T00:26:57;13.10;;;12.00;;
12840;SDS011;6487;48.626;12.486;2022-08-19T00:29:47;12.37;;;11.47;;
12840;SDS011;6487;48.626;12.486;2022-08-19T00:32:17;14.93;;;13.73;;
12840;SDS011;6487;48.626;12.486;2022-08-19T00:34:47;14.57;;;13.37;;
12840;SDS011;6487;48.626;12.486;2022-08-19T00:37:17;14.23;;;13.00;;
12840;SDS011;6487;48.626;12.486;2022-08-19T00:39:48;15.37;;;14.07;;
12840;SDS011;6487;48.626;12.486;2022-08-19T00:42:18;15.57;;;14.33;;
12840;SDS011;6487;48.626;12.486;2022-08-19T00:44:48;16.33;;;14.93;;
12840;SDS011;6487;48.626;12.486;2022-08-19T00:47:16;16.23;;;14.83;;
12840;SDS011;6487;48.626;12.486;2022-08-19T00:49:48;15.00;;;13.87;;
12840;SDS011;6487;48.626;12.486;2022-08-19T00:52:22;16.57;;;15.17;;
12840;SDS011;6487;48.626;12.486;2022-08-19T00:54:55;16.03;;;14.83;;
12840;SDS011;6487;48.626;12.486;2022-08-19T00:57:26;16.80;;;15.13;;
12840;SDS011;6487;48.626;12.486;2022-08-19T00:59:58;15.73;;;14.53;;
12840;SDS011;6487;48.626;12.486;2022-08-19T01:02:29;15.73;;;14.47;;
12840;SDS011;6487;48.626;12.486;2022-08-19T01:05:00;16.40;;;15.07;;
12840;SDS011;6487;48.626;12.486;2022-08-19T01:07:34;15.30;;;14.10;;
12840;SDS011;6487;48.626;12.486;2022-08-19T01:10:07;16.23;;;15.03;;
12840;SDS011;6487;48.626;12.486;2022-08-19T01:12:40;16.07;;;14.57;;
12840;SDS011;6487;48.626;12.486;2022-08-19T01:15:10;16.90;;;15.50;;
12840;SDS011;6487;48.626;12.486;2022-08-19T01:17:42;16.43;;;14.93;;
12840;SDS011;6487;48.626;12.486;2022-08-19T01:20:14;16.97;;;15.67;;
12840;SDS011;6487;48.626;12.486;2022-08-19T01:22:48;16.17;;;14.87;;
12840;SDS011;6487;48.626;12.486;2022-08-19T01:25:24;16.97;;;15.57;;
12840;SDS011;6487;48.626;12.486;2022-08-19T01:27:58;16.57;;;15.07;;
12840;SDS011;6487;48.626;12.486;2022-08-19T01:30:36;15.43;;;14.20;;
12840;SDS011;6487;48.626;12.486;2022-08-19T01:33:09;15.50;;;14.20;;
12840;SDS011;6487;48.626;12.486;2022-08-19T01:35:38;16.70;;;15.23;;
12840;SDS011;6487;48.626;12.486;2022-08-19T01:38:09;15.80;;;14.50;;
12840;SDS011;6487;48.626;12.486;2022-08-19T01:40:47;16.50;;;15.07;;
12840;SDS011;6487;48.626;12.486;2022-08-19T01:43:15;16.80;;;15.40;;
12840;SDS011;6487;48.626;12.486;2022-08-19T01:45:45;15.63;;;14.43;;
12840;SDS011;6487;48.626;12.486;2022-08-19T01:48:14;15.20;;;14.10;;
12840;SDS011;6487;48.626;12.486;2022-08-19T01:50:42;15.33;;;14.07;;
12840;SDS011;6487;48.626;12.486;2022-08-19T01:53:12;15.23;;;14.03;;
12840;SDS011;6487;48.626;12.486;2022-08-19T01:55:41;14.53;;;13.33;;
12840;SDS011;6487;48.626;12.486;2022-08-19T01:58:12;14.70;;;13.50;;
12840;SDS011;6487;48.626;12.486;2022-08-19T02:00:44;15.33;;;14.13;;
12840;SDS011;6487;48.626;12.486;2022-08-19T02:03:14;15.17;;;14.00;;
12840;SDS011;6487;48.626;12.486;2022-08-19T02:05:43;15.23;;;14.03;;
12840;SDS011;6487;48.626;12.486;2022-08-19T02:08:13;17.30;;;15.90;;
12840;SDS011;6487;48.626;12.486;2022-08-19T02:10:42;16.37;;;15.03;;
12840;SDS011;6487;48.626;12.486;2022-08-19T02:13:12;16.07;;;14.83;;
12840;SDS011;6487;48.626;12.486;2022-08-19T02:15:46;18.30;;;16.60;;
12840;SDS011;6487;48.626;12.486;2022-08-19T02:18:14;16.93;;;15.63;;
12840;SDS011;6487;48.626;12.486;2022-08-19T02:20:43;15.80;;;14.60;;
12840;SDS011;6487;48.626;12.486;2022-08-19T02:23:14;16.83;;;15.33;;
12840;SDS011;6487;48.626;12.486;2022-08-19T02:25:45;17.13;;;15.83;;
12840;SDS011;6487;48.626;12.486;2022-08-19T02:28:15;16.67;;;15.33;;
12840;SDS011;6487;48.626;12.486;2022-08-19T02:30:44;17.40;;;15.90;;
12840;SDS011;6487;48.626;12.486;2022-08-19T02:33:14;17.00;;;15.60;;
12840;SDS011;6487;48.626;12.486;2022-08-19T02:35:43;17.07;;;15.47;;
12840;SDS011;6487;48.626;12.486;2022-08-19T02:38:12;16.20;;;14.97;;
12840;SDS011;6487;48.626;12.486;2022-08-19T02:40:55;16.43;;;15.17;;
12840;SDS011;6487;48.626;12.486;2022-08-19T02:43:25;18.30;;;16.80;;
12840;SDS011;6487;48.626;12.486;2022-08-19T02:45:59;18.27;;;16.87;;
12840;SDS011;6487;48.626;12.486;2022-08-19T02:48:27;18.67;;;17.13;;
12840;SDS011;6487;48.626;12.486;2022-08-19T02:50:56;17.93;;;16.33;;
12840;SDS011;6487;48.626;12.486;2022-08-19T02:53:27;17.20;;;15.80;;
12840;SDS011;6487;48.626;12.486;2022-08-19T02:55:55;17.83;;;16.07;;
12840;SDS011;6487;48.626;12.486;2022-08-19T02:58:24;16.50;;;15.17;;
12840;SDS011;6487;48.626;12.486;2022-08-19T03:00:54;16.67;;;15.37;;
12840;SDS011;6487;48.626;12.486;2022-08-19T03:03:24;17.10;;;15.50;;
12840;SDS011;6487;48.626;12.486;2022-08-19T03:06:02;17.33;;;15.73;;
12840;SDS011;6487;48.626;12.486;2022-08-19T03:08:36;17.53;;;16.13;;
12840;SDS011;6487;48.626;12.486;2022-08-19T03:11:05;18.10;;;16.60;;
12840;SDS011;6487;48.626;12.486;2022-08-19T03:13:38;18.60;;;17.10;;
12840;SDS011;6487;48.626;12.486;2022-08-19T03:16:06;18.40;;;16.80;;
12840;SDS011;6487;48.626;12.486;2022-08-19T03:18:35;17.93;;;16.53;;
12840;SDS011;6487;48.626;12.486;2022-08-19T03:21:03;18.30;;;16.80;;
12840;SDS011;6487;48.626;12.486;2022-08-19T03:23:38;18.63;;;17.03;;
12840;SDS011;6487;48.626;12.486;2022-08-19T03:26:07;17.90;;;16.40;;
12840;SDS011;6487;48.626;12.486;2022-08-19T03:28:42;19.23;;;17.43;;
12840;SDS011;6487;48.626;12.486;2022-08-19T03:31:24;18.03;;;16.53;;
12840;SDS011;6487;48.626;12.486;2022-08-19T03:34:11;17.20;;;15.60;;
12840;SDS011;6487;48.626;12.486;2022-08-19T03:36:43;17.77;;;16.37;;
12840;SDS011;6487;48.626;12.486;2022-08-19T03:39:14;16.70;;;15.33;;
12840;SDS011;6487;48.626;12.486;2022-08-19T03:41:44;17.73;;;16.13;;
12840;SDS011;6487;48.626;12.486;2022-08-19T03:44:35;17.93;;;16.37;;
12840;SDS011;6487;48.626;12.486;2022-08-19T03:47:04;19.80;;;18.00;;
12840;SDS011;6487;48.626;12.486;2022-08-19T03:49:33;18.00;;;16.60;;
12840;SDS011;6487;48.626;12.486;2022-08-19T03:52:03;18.47;;;16.97;;
12840;SDS011;6487;48.626;12.486;2022-08-19T03:54:35;18.23;;;16.73;;
12840;SDS011;6487;48.626;12.486;2022-08-19T03:57:04;19.63;;;17.83;;
12840;SDS011;6487;48.626;12.486;2022-08-19T03:59:35;18.90;;;17.07;;
12840;SDS011;6487;48.626;12.486;2022-08-19T04:02:06;18.23;;;16.63;;
12840;SDS011;6487;48.626;12.486;2022-08-19T04:04:38;19.73;;;18.03;;
12840;SDS011;6487;48.626;12.486;2022-08-19T04:07:10;16.97;;;15.57;;
12840;SDS011;6487;48.626;12.486;2022-08-19T04:09:43;17.27;;;15.87;;
12840;SDS011;6487;48.626;12.486;2022-08-19T04:12:12;16.50;;;15.00;;
12840;SDS011;6487;48.626;12.486;2022-08-19T04:14:41;18.50;;;16.50;;
12840;SDS011;6487;48.626;12.486;2022-08-19T04:17:09;16.90;;;15.40;;
12840;SDS011;6487;48.626;12.486;2022-08-19T04:19:39;17.13;;;15.57;;
12840;SDS011;6487;48.626;12.486;2022-08-19T04:22:09;17.27;;;15.77;;
12840;SDS011;6487;48.626;12.486;2022-08-19T04:24:38;17.63;;;16.13;;
12840;SDS011;6487;48.626;12.486;2022-08-19T04:27:08;17.60;;;15.97;;
12840;SDS011;6487;48.626;12.486;2022-08-19T04:29:36;17.33;;;15.83;;
12840;SDS011;6487;48.626;12.486;2022-08-19T04:32:05;17.53;;;16.00;;
12840;SDS011;6487;48.626;12.486;2022-08-19T04:34:35;17.77;;;16.13;;
12840;SDS011;6487;48.626;12.486;2022-08-19T04:37:24;17.57;;;16.00;;
12840;SDS011;6487;48.626;12.486;2022-08-19T04:40:01;15.93;;;14.43;;
12840;SDS011;6487;48.626;12.486;2022-08-19T04:42:51;17.80;;;16.07;;
12840;SDS011;6487;48.626;12.486;2022-08-19T04:45:20;16.17;;;14.77;;
12840;SDS011;6487;48.626;12.486;2022-08-19T04:47:49;16.53;;;15.23;;
12840;SDS011;6487;48.626;12.486;2022-08-19T04:50:44;15.83;;;14.53;;
12840;SDS011;6487;48.626;12.486;2022-08-19T04:53:13;16.50;;;14.90;;
12840;SDS011;6487;48.626;12.486;2022-08-19T04:55:41;16.33;;;15.00;;
12840;SDS011;6487;48.626;12.486;2022-08-19T04:58:11;16.17;;;14.77;;
12840;SDS011;6487;48.626;12.486;2022-08-19T05:00:40;17.87;;;16.33;;
12840;SDS011;6487;48.626;12.486;2022-08-19T05:03:09;18.03;;;16.37;;
12840;SDS011;6487;48.626;12.486;2022-08-19T05:05:38;17.83;;;15.87;;
12840;SDS011;6487;48.626;12.486;2022-08-19T05:08:10;18.10;;;16.60;;
12840;SDS011;6487;48.626;12.486;2022-08-19T05:10:40;18.43;;;16.73;;
12840;SDS011;6487;48.626;12.486;2022-08-19T05:13:09;17.83;;;16.17;;
12840;SDS011;6487;48.626;12.486;2022-08-19T05:15:39;18.27;;;16.67;;
12840;SDS011;6487;48.626;12.486;2022-08-19T05:18:07;17.40;;;15.93;;
12840;SDS011;6487;48.626;12.486;2022-08-19T05:20:54;18.13;;;16.33;;
12840;SDS011;6487;48.626;12.486;2022-08-19T05:23:40;18.17;;;16.40;;
12840;SDS011;6487;48.626;12.486;2022-08-19T05:26:08;17.60;;;15.97;;
12840;SDS011;6487;48.626;12.486;2022-08-19T05:28:38;16.90;;;15.50;;
12840;SDS011;6487;48.626;12.486;2022-08-19T05:31:07;16.67;;;15.27;;
12840;SDS011;6487;48.626;12.486;2022-08-19T05:33:35;16.23;;;14.80;;
12840;SDS011;6487;48.626;12.486;2022-08-19T05:36:06;15.83;;;14.27;;
12840;SDS011;6487;48.626;12.486;2022-08-19T05:38:35;15.10;;;13.80;;
12840;SDS011;6487;48.626;12.486;2022-08-19T05:41:06;15.80;;;14.30;;
12840;SDS011;6487;48.626;12.486;2022-08-19T05:43:36;15.40;;;14.10;;
12840;SDS011;6487;48.626;12.486;2022-08-19T05:46:06;15.13;;;13.80;;
12840;SDS011;6487;48.626;12.486;2022-08-19T05:48:35;15.30;;;14.00;;
12840;SDS011;6487;48.626;12.486;2022-08-19T05:51:04;15.60;;;14.30;;
12840;SDS011;6487;48.626;12.486;2022-08-19T05:53:34;15.37;;;14.07;;
12840;SDS011;6487;48.626;12.486;2022-08-19T05:56:04;16.07;;;14.43;;
12840;SDS011;6487;48.626;12.486;2022-08-19T05:58:33;16.30;;;14.43;;
12840;SDS011;6487;48.626;12.486;2022-08-19T06:01:03;13.90;;;12.73;;
12840;SDS011;6487;48.626;12.486;2022-08-19T06:03:36;16.93;;;15.53;;
12840;SDS011;6487;48.626;12.486;2022-08-19T06:06:05;14.93;;;13.73;;
12840;SDS011;6487;48.626;12.486;2022-08-19T06:08:35;13.77;;;12.67;;
12840;SDS011;6487;48.626;12.486;2022-08-19T06:11:14;12.87;;;11.87;;
12840;SDS011;6487;48.626;12.486;2022-08-19T06:13:49;12.63;;;11.30;;
12840;SDS011;6487;48.626;12.486;2022-08-19T06:16:27;11.70;;;10.70;;
12840;SDS011;6487;48.626;12.486;2022-08-19T06:18:58;10.93;;;10.03;;
12840;SDS011;6487;48.626;12.486;2022-08-19T06:21:29;11.20;;;10.20;;
12840;SDS011;6487;48.626;12.486;2022-08-19T06:23:58;11.30;;;10.40;;
12840;SDS011;6487;48.626;12.486;2022-08-19T06:26:27;11.77;;;10.77;;
12840;SDS011;6487;48.626;12.486;2022-08-19T06:28:55;11.17;;;10.17;;
12840;SDS011;6487;48.626;12.486;2022-08-19T06:31:25;11.40;;;10.40;;
12840;SDS011;6487;48.626;12.486;2022-08-19T06:33:59;11.43;;;10.53;;
12840;SDS011;6487;48.626;12.486;2022-08-19T06:36:30;11.67;;;10.20;;
12840;SDS011;6487;48.626;12.486;2022-08-19T06:39:02;11.60;;;10.57;;
12840;SDS011;6487;48.626;12.486;2022-08-19T06:41:34;14.90;;;13.57;;
12840;SDS011;6487;48.626;12.486;2022-08-19T06:44:12;13.50;;;12.27;;
12840;SDS011;6487;48.626;12.486;2022-08-19T06:46:46;13.30;;;12.07;;
12840;SDS011;6487;48.626;12.486;2022-08-19T06:49:20;15.13;;;12.70;;
12840;SDS011;6487;48.626;12.486;2022-08-19T06:51:49;14.63;;;12.47;;
12840;SDS011;6487;48.626;12.486;2022-08-19T06:54:19;12.00;;;11.00;;
12840;SDS011;6487;48.626;12.486;2022-08-19T06:56:56;12.00;;;10.90;;
12840;SDS011;6487;48.626;12.486;2022-08-19T06:59:28;13.60;;;12.37;;
12840;SDS011;6487;48.626;12.486;2022-08-19T07:02:01;14.97;;;12.63;;
12840;SDS011;6487;48.626;12.486;2022-08-19T07:04:33;13.80;;;12.50;;
12840;SDS011;6487;48.626;12.486;2022-08-19T07:07:08;13.10;;;12.07;;
12840;SDS011;6487;48.626;12.486;2022-08-19T07:09:46;14.17;;;12.77;;
12840;SDS011;6487;48.626;12.486;2022-08-19T07:12:27;15.20;;;13.67;;
12840;SDS011;6487;48.626;12.486;2022-08-19T07:15:01;14.23;;;12.93;;
12840;SDS011;6487;48.626;12.486;2022-08-19T07:17:32;13.30;;;12.07;;
12840;SDS011;6487;48.626;12.486;2022-08-19T07:20:04;12.20;;;11.20;;
12840;SDS011;6487;48.626;12.486;2022-08-19T07:22:35;12.87;;;11.67;;
12840;SDS011;6487;48.626;12.486;2022-08-19T07:25:05;12.67;;;11.57;;
12840;SDS011;6487;48.626;12.486;2022-08-19T07:27:35;13.23;;;12.03;;
12840;SDS011;6487;48.626;12.486;2022-08-19T07:30:05;12.17;;;11.00;;
12840;SDS011;6487;48.626;12.486;2022-08-19T07:32:39;11.60;;;10.50;;
12840;SDS011;6487;48.626;12.486;2022-08-19T07:35:08;12.60;;;11.40;;
12840;SDS011;6487;48.626;12.486;2022-08-19T07:37:37;12.20;;;11.20;;
12840;SDS011;6487;48.626;12.486;2022-08-19T07:40:11;12.57;;;11.27;;
12840;SDS011;6487;48.626;12.486;2022-08-19T07:42:40;13.80;;;12.60;;
12840;SDS011;6487;48.626;12.486;2022-08-19T07:45:09;13.10;;;12.00;;
12840;SDS011;6487;48.626;12.486;2022-08-19T07:47:37;13.87;;;12.73;;
12840;SDS011;6487;48.626;12.486;2022-08-19T07:50:16;15.30;;;13.80;;
12840;SDS011;6487;48.626;12.486;2022-08-19T07:52:46;15.27;;;13.97;;
12840;SDS011;6487;48.626;12.486;2022-08-19T07:55:17;13.97;;;12.70;;
12840;SDS011;6487;48.626;12.486;2022-08-19T07:58:09;14.50;;;13.20;;
12840;SDS011;6487;48.626;12.486;2022-08-19T08:00:39;12.90;;;11.80;;
12840;SDS011;6487;48.626;12.486;2022-08-19T08:03:09;13.90;;;12.77;;
12840;SDS011;6487;48.626;12.486;2022-08-19T08:05:39;14.67;;;13.37;;
12840;SDS011;6487;48.626;12.486;2022-08-19T08:08:25;15.70;;;14.30;;
12840;SDS011;6487;48.626;12.486;2022-08-19T08:11:26;15.43;;;13.63;;
12840;SDS011;6487;48.626;12.486;2022-08-19T08:13:54;14.70;;;13.50;;
12840;SDS011;6487;48.626;12.486;2022-08-19T08:16:26;15.07;;;13.70;;
12840;SDS011;6487;48.626;12.486;2022-08-19T08:18:59;14.03;;;12.87;;
12840;SDS011;6487;48.626;12.486;2022-08-19T08:21:27;14.27;;;12.97;;
12840;SDS011;6487;48.626;12.486;2022-08-19T08:23:55;15.60;;;14.07;;
12840;SDS011;6487;48.626;12.486;2022-08-19T08:26:29;14.67;;;13.40;;
12840;SDS011;6487;48.626;12.486;2022-08-19T08:28:59;14.80;;;13.60;;
12840;SDS011;6487;48.626;12.486;2022-08-19T08:31:37;19.80;;;17.93;;
12840;SDS011;6487;48.626;12.486;2022-08-19T08:34:09;20.10;;;18.40;;
12840;SDS011;6487;48.626;12.486;2022-08-19T08:36:39;22.07;;;19.97;;
12840;SDS011;6487;48.626;12.486;2022-08-19T08:39:11;22.40;;;20.50;;
12840;SDS011;6487;48.626;12.486;2022-08-19T08:41:44;19.70;;;17.83;;
12840;SDS011;6487;48.626;12.486;2022-08-19T08:44:20;23.37;;;21.37;;
12840;SDS011;6487;48.626;12.486;2022-08-19T08:46:55;22.03;;;20.27;;
12840;SDS011;6487;48.626;12.486;2022-08-19T08:49:31;23.57;;;21.47;;
12840;SDS011;6487;48.626;12.486;2022-08-19T08:52:10;23.83;;;21.77;;
12840;SDS011;6487;48.626;12.486;2022-08-19T08:54:44;22.57;;;20.70;;
12840;SDS011;6487;48.626;12.486;2022-08-19T08:57:23;23.57;;;21.47;;
12840;SDS011;6487;48.626;12.486;2022-08-19T09:00:06;23.20;;;21.23;;
12840;SDS011;6487;48.626;12.486;2022-08-19T09:02:41;22.73;;;20.83;;
12840;SDS011;6487;48.626;12.486;2022-08-19T09:05:17;22.37;;;20.57;;
12840;SDS011;6487;48.626;12.486;2022-08-19T09:07:53;22.43;;;20.60;;
12840;SDS011;6487;48.626;12.486;2022-08-19T09:10:29;21.77;;;19.97;;
12840;SDS011;6487;48.626;12.486;2022-08-19T09:13:12;20.70;;;19.00;;
12840;SDS011;6487;48.626;12.486;2022-08-19T09:15:49;21.20;;;19.30;;
12840;SDS011;6487;48.626;12.486;2022-08-19T09:18:24;19.57;;;18.00;;
12840;SDS011;6487;48.626;12.486;2022-08-19T09:20:56;19.90;;;18.17;;
12840;SDS011;6487;48.626;12.486;2022-08-19T09:23:24;19.23;;;17.70;;
12840;SDS011;6487;48.626;12.486;2022-08-19T09:25:53;20.47;;;18.77;;
12840;SDS011;6487;48.626;12.486;2022-08-19T09:28:23;19.57;;;17.97;;
12840;SDS011;6487;48.626;12.486;2022-08-19T09:30:52;17.90;;;16.50;;
12840;SDS011;6487;48.626;12.486;2022-08-19T09:33:21;18.33;;;16.80;;
12840;SDS011;6487;48.626;12.486;2022-08-19T09:35:49;18.00;;;16.50;;
12840;SDS011;6487;48.626;12.486;2022-08-19T09:38:20;18.63;;;16.97;;
12840;SDS011;6487;48.626;12.486;2022-08-19T09:40:49;18.50;;;16.90;;
12840;SDS011;6487;48.626;12.486;2022-08-19T09:43:17;19.73;;;18.13;;
12840;SDS011;6487;48.626;12.486;2022-08-19T09:45:59;18.93;;;17.43;;
12840;SDS011;6487;48.626;12.486;2022-08-19T09:48:28;18.70;;;17.30;;
12840;SDS011;6487;48.626;12.486;2022-08-19T09:51:01;18.67;;;17.07;;
12840;SDS011;6487;48.626;12.486;2022-08-19T09:53:38;18.47;;;16.97;;
12840;SDS011;6487;48.626;12.486;2022-08-19T09:56:07;19.80;;;18.20;;
12840;SDS011;6487;48.626;12.486;2022-08-19T09:58:36;20.47;;;18.77;;
12840;SDS011;6487;48.626;12.486;2022-08-19T10:01:06;19.43;;;17.83;;
12840;SDS011;6487;48.626;12.486;2022-08-19T10:03:35;19.83;;;18.10;;
12840;SDS011;6487;48.626;12.486;2022-08-19T10:06:04;20.33;;;18.63;;
12840;SDS011;6487;48.626;12.486;2022-08-19T10:08:44;18.67;;;17.07;;
12840;SDS011;6487;48.626;12.486;2022-08-19T10:11:15;19.43;;;17.83;;
12840;SDS011;6487;48.626;12.486;2022-08-19T10:14:01;18.67;;;17.23;;
12840;SDS011;6487;48.626;12.486;2022-08-19T10:16:32;19.23;;;17.63;;
12840;SDS011;6487;48.626;12.486;2022-08-19T10:19:05;19.10;;;17.50;;
12840;SDS011;6487;48.626;12.486;2022-08-19T10:21:33;18.67;;;17.17;;
12840;SDS011;6487;48.626;12.486;2022-08-19T10:24:04;19.83;;;18.23;;
12840;SDS011;6487;48.626;12.486;2022-08-19T10:26:35;19.53;;;17.93;;
12840;SDS011;6487;48.626;12.486;2022-08-19T10:29:08;21.63;;;19.80;;
12840;SDS011;6487;48.626;12.486;2022-08-19T10:31:37;18.77;;;17.23;;
12840;SDS011;6487;48.626;12.486;2022-08-19T10:34:26;19.90;;;17.97;;
12840;SDS011;6487;48.626;12.486;2022-08-19T10:36:56;20.43;;;18.70;;
12840;SDS011;6487;48.626;12.486;2022-08-19T10:39:29;17.53;;;16.03;;
12840;SDS011;6487;48.626;12.486;2022-08-19T10:42:08;19.80;;;18.10;;
12840;SDS011;6487;48.626;12.486;2022-08-19T10:44:39;21.97;;;20.07;;
12840;SDS011;6487;48.626;12.486;2022-08-19T10:47:08;18.93;;;17.20;;
12840;SDS011;6487;48.626;12.486;2022-08-19T10:49:51;18.57;;;16.97;;
12840;SDS011;6487;48.626;12.486;2022-08-19T10:52:38;18.63;;;17.03;;
12840;SDS011;6487;48.626;12.486;2022-08-19T10:55:17;20.23;;;18.47;;
12840;SDS011;6487;48.626;12.486;2022-08-19T10:58:09;19.80;;;18.10;;
12840;SDS011;6487;48.626;12.486;2022-08-19T11:00:40;20.63;;;18.93;;
12840;SDS011;6487;48.626;12.486;2022-08-19T11:03:09;19.83;;;18.13;;
12840;SDS011;6487;48.626;12.486;2022-08-19T11:05:38;18.73;;;17.13;;
12840;SDS011;6487;48.626;12.486;2022-08-19T11:08:07;19.50;;;17.90;;
12840;SDS011;6487;48.626;12.486;2022-08-19T11:10:50;21.77;;;19.80;;
12840;SDS011;6487;48.626;12.486;2022-08-19T11:13:24;20.63;;;18.90;;
12840;SDS011;6487;48.626;12.486;2022-08-19T11:15:56;22.30;;;20.40;;
12840;SDS011;6487;48.626;12.486;2022-08-19T11:18:33;21.83;;;20.03;;
12840;SDS011;6487;48.626;12.486;2022-08-19T11:21:07;22.27;;;20.27;;
12840;SDS011;6487;48.626;12.486;2022-08-19T11:23:38;21.77;;;19.70;;
12840;SDS011;6487;48.626;12.486;2022-08-19T11:26:09;21.73;;;19.83;;
12840;SDS011;6487;48.626;12.486;2022-08-19T11:28:37;22.10;;;20.20;;
12840;SDS011;6487;48.626;12.486;2022-08-19T11:31:08;25.90;;;23.70;;
12840;SDS011;6487;48.626;12.486;2022-08-19T11:33:39;25.37;;;23.17;;
12840;SDS011;6487;48.626;12.486;2022-08-19T11:36:12;26.87;;;24.53;;
12840;SDS011;6487;48.626;12.486;2022-08-19T11:38:41;24.03;;;21.97;;
12840;SDS011;6487;48.626;12.486;2022-08-19T11:41:11;25.97;;;23.80;;
12840;SDS011;6487;48.626;12.486;2022-08-19T11:43:40;25.03;;;22.63;;
12840;SDS011;6487;48.626;12.486;2022-08-19T11:46:09;24.33;;;22.30;;
12840;SDS011;6487;48.626;12.486;2022-08-19T11:48:41;24.80;;;22.80;;
12840;SDS011;6487;48.626;12.486;2022-08-19T11:51:10;27.30;;;25.10;;
12840;SDS011;6487;48.626;12.486;2022-08-19T11:53:41;26.10;;;23.73;;
12840;SDS011;6487;48.626;12.486;2022-08-19T11:56:09;26.13;;;23.80;;
12840;SDS011;6487;48.626;12.486;2022-08-19T11:58:40;25.23;;;23.07;;
12840;SDS011;6487;48.626;12.486;2022-08-19T12:01:10;26.00;;;23.90;;
12840;SDS011;6487;48.626;12.486;2022-08-19T12:03:41;26.20;;;24.10;;
12840;SDS011;6487;48.626;12.486;2022-08-19T12:06:12;25.47;;;23.23;;
12840;SDS011;6487;48.626;12.486;2022-08-19T12:08:43;25.63;;;23.43;;
12840;SDS011;6487;48.626;12.486;2022-08-19T12:11:15;23.10;;;21.20;;
12840;SDS011;6487;48.626;12.486;2022-08-19T12:13:43;21.23;;;19.43;;
12840;SDS011;6487;48.626;12.486;2022-08-19T12:16:13;20.77;;;19.07;;
12840;SDS011;6487;48.626;12.486;2022-08-19T12:18:44;19.00;;;17.50;;
12840;SDS011;6487;48.626;12.486;2022-08-19T12:21:13;14.70;;;13.50;;
12840;SDS011;6487;48.626;12.486;2022-08-19T12:23:44;16.43;;;15.23;;
12840;SDS011;6487;48.626;12.486;2022-08-19T12:26:12;16.13;;;14.90;;
12840;SDS011;6487;48.626;12.486;2022-08-19T12:28:42;18.37;;;16.83;;
12840;SDS011;6487;48.626;12.486;2022-08-19T12:31:12;16.17;;;14.97;;
12840;SDS011;6487;48.626;12.486;2022-08-19T12:33:40;14.80;;;13.60;;
12840;SDS011;6487;48.626;12.486;2022-08-19T12:36:10;18.67;;;17.07;;
12840;SDS011;6487;48.626;12.486;2022-08-19T12:38:41;20.63;;;18.77;;
12840;SDS011;6487;48.626;12.486;2022-08-19T12:41:11;18.87;;;17.27;;
12840;SDS011;6487;48.626;12.486;2022-08-19T12:43:44;19.90;;;18.20;;
12840;SDS011;6487;48.626;12.486;2022-08-19T12:46:15;20.97;;;19.10;;
12840;SDS011;6487;48.626;12.486;2022-08-19T12:48:44;20.87;;;19.27;;
12840;SDS011;6487;48.626;12.486;2022-08-19T12:51:19;18.57;;;16.87;;
12840;SDS011;6487;48.626;12.486;2022-08-19T12:53:48;19.90;;;18.30;;
12840;SDS011;6487;48.626;12.486;2022-08-19T12:56:18;18.63;;;17.17;;
12840;SDS011;6487;48.626;12.486;2022-08-19T12:58:48;19.50;;;18.00;;
12840;SDS011;6487;48.626;12.486;2022-08-19T13:01:18;19.50;;;17.80;;
12840;SDS011;6487;48.626;12.486;2022-08-19T13:03:49;18.30;;;16.60;;
12840;SDS011;6487;48.626;12.486;2022-08-19T13:06:19;18.33;;;16.63;;
12840;SDS011;6487;48.626;12.486;2022-08-19T13:08:48;18.17;;;16.53;;
12840;SDS011;6487;48.626;12.486;2022-08-19T13:11:24;16.60;;;15.20;;
12840;SDS011;6487;48.626;12.486;2022-08-19T13:13:52;16.13;;;14.53;;
12840;SDS011;6487;48.626;12.486;2022-08-19T13:16:22;16.57;;;15.17;;
12840;SDS011;6487;48.626;12.486;2022-08-19T13:18:50;15.13;;;13.83;;
12840;SDS011;6487;48.626;12.486;2022-08-19T13:21:19;14.90;;;13.67;;
12840;SDS011;6487;48.626;12.486;2022-08-19T13:23:50;15.97;;;14.60;;
12840;SDS011;6487;48.626;12.486;2022-08-19T13:26:20;14.93;;;13.63;;
12840;SDS011;6487;48.626;12.486;2022-08-19T13:28:50;13.83;;;12.63;;
12840;SDS011;6487;48.626;12.486;2022-08-19T13:31:36;14.70;;;13.60;;
12840;SDS011;6487;48.626;12.486;2022-08-19T13:34:27;13.00;;;12.00;;
12840;SDS011;6487;48.626;12.486;2022-08-19T13:37:00;12.02;;;11.02;;
12840;SDS011;6487;48.626;12.486;2022-08-19T13:39:30;11.23;;;10.33;;
12840;SDS011;6487;48.626;12.486;2022-08-19T13:42:01;10.02;;;9.30;;
12840;SDS011;6487;48.626;12.486;2022-08-19T13:44:32;11.48;;;10.57;;
12840;SDS011;6487;48.626;12.486;2022-08-19T13:47:01;13.10;;;12.10;;
12840;SDS011;6487;48.626;12.486;2022-08-19T13:49:33;12.37;;;11.37;;
12840;SDS011;6487;48.626;12.486;2022-08-19T13:52:03;11.85;;;11.00;;
12840;SDS011;6487;48.626;12.486;2022-08-19T13:54:32;13.60;;;12.60;;
12840;SDS011;6487;48.626;12.486;2022-08-19T13:57:01;12.00;;;11.00;;
12840;SDS011;6487;48.626;12.486;2022-08-19T13:59:29;11.13;;;10.33;;
12840;SDS011;6487;48.626;12.486;2022-08-19T14:01:59;9.93;;;9.23;;
12840;SDS011;6487;48.626;12.486;2022-08-19T14:04:28;11.32;;;10.43;;
12840;SDS011;6487;48.626;12.486;2022-08-19T14:09:33;10.23;;;9.43;;
12840;SDS011;6487;48.626;12.486;2022-08-19T14:12:01;9.87;;;9.07;;
12840;SDS011;6487;48.626;12.486;2022-08-19T14:14:32;8.33;;;7.73;;
12840;SDS011;6487;48.626;12.486;2022-08-19T14:17:05;8.00;;;7.43;;
12840;SDS011;6487;48.626;12.486;2022-08-19T14:19:37;9.02;;;8.18;;
12840;SDS011;6487;48.626;12.486;2022-08-19T14:22:06;8.25;;;7.65;;
12840;SDS011;6487;48.626;12.486;2022-08-19T14:24:37;7.80;;;7.20;;
12840;SDS011;6487;48.626;12.486;2022-08-19T14:27:13;10.60;;;9.80;;
12840;SDS011;6487;48.626;12.486;2022-08-19T14:29:42;12.20;;;11.13;;
12840;SDS011;6487;48.626;12.486;2022-08-19T14:32:11;12.10;;;11.10;;
12840;SDS011;6487;48.626;12.486;2022-08-19T14:34:42;12.00;;;11.00;;
12840;SDS011;6487;48.626;12.486;2022-08-19T14:37:12;11.30;;;10.30;;
12840;SDS011;6487;48.626;12.486;2022-08-19T14:39:41;11.67;;;10.67;;
12840;SDS011;6487;48.626;12.486;2022-08-19T14:42:11;11.40;;;10.40;;
12840;SDS011;6487;48.626;12.486;2022-08-19T14:44:40;12.03;;;11.13;;
12840;SDS011;6487;48.626;12.486;2022-08-19T14:47:11;13.40;;;12.23;;
12840;SDS011;6487;48.626;12.486;2022-08-19T14:49:39;12.00;;;11.00;;
12840;SDS011;6487;48.626;12.486;2022-08-19T14:52:13;13.03;;;11.73;;